createdAt,value
2022-11-15T00:01:46.501Z,99581.61
2022-11-15T00:04:32.182Z,99581.71
2022-11-15T00:07:40.452Z,99579.30
2022-11-15T00:10:23.624Z,99578.76
2022-11-15T00:13:13.575Z,99575.39
2022-11-15T00:16:00.004Z,99578.41
2022-11-15T00:18:50.330Z,99572.42
2022-11-15T00:21:36.466Z,99564.86
2022-11-15T00:24:22.287Z,99562.04
2022-11-15T00:27:08.341Z,99559.45
2022-11-15T00:29:54.465Z,99552.48
2022-11-15T00:32:39.959Z,99542.79
2022-11-15T00:35:25.888Z,99540.35
2022-11-15T00:38:11.668Z,99532.34
2022-11-15T00:40:57.311Z,99529.69
2022-11-15T00:43:44.946Z,99525.08
2022-11-15T00:46:30.730Z,99520.04
2022-11-15T00:49:16.153Z,99510.31
2022-11-15T00:52:01.610Z,99509.25
2022-11-15T00:54:47.381Z,99504.67
2022-11-15T00:57:33.051Z,99501.85
2022-11-15T01:00:19.149Z,99502.72
2022-11-15T01:03:04.937Z,99499.90
2022-11-15T01:05:50.614Z,99500.73
2022-11-15T01:08:36.605Z,99500.31
2022-11-15T01:11:22.495Z,99491.48
2022-11-15T01:14:08.390Z,99496.31
2022-11-15T01:16:54.072Z,99493.79
2022-11-15T01:19:39.753Z,99493.42
2022-11-15T01:22:25.543Z,99486.52
2022-11-15T01:25:11.336Z,99485.70
2022-11-15T01:27:57.324Z,99481.98
2022-11-15T01:30:42.998Z,99474.63
2022-11-15T01:33:31.131Z,99471.54
2022-11-15T01:36:22.966Z,99473.09
2022-11-15T01:39:09.060Z,99470.48
2022-11-15T01:41:55.054Z,99469.53
2022-11-15T01:44:43.747Z,99469.76
2022-11-15T01:47:40.764Z,99467.86
2022-11-15T01:50:29.124Z,99462.59
2022-11-15T01:53:15.512Z,99456.51
2022-11-15T01:56:04.266Z,99454.48
2022-11-15T01:58:50.054Z,99450.11
2022-11-15T02:01:35.940Z,99448.08
2022-11-15T02:04:33.096Z,99451.82
2022-11-15T02:07:19.863Z,99450.64
2022-11-15T02:10:09.633Z,99445.85
2022-11-15T02:12:55.780Z,99443.08
2022-11-15T02:16:03.049Z,99445.21
2022-11-15T02:19:01.091Z,99444.19
2022-11-15T02:22:17.349Z,99440.81
2022-11-15T02:25:41.937Z,99438.30
2022-11-15T02:28:40.747Z,99432.02
2022-11-15T02:31:51.506Z,99427.08
2022-11-15T02:34:49.892Z,99429.41
2022-11-15T02:37:38.129Z,99425.23
2022-11-15T02:40:36.481Z,99430.05
2022-11-15T02:43:58.768Z,99429.17
2022-11-15T02:47:13.719Z,99425.48
2022-11-15T02:50:02.369Z,99422.01
2022-11-15T02:52:52.256Z,99418.09
2022-11-15T02:55:42.109Z,99416.74
2022-11-15T02:58:43.420Z,99413.57
2022-11-15T03:01:29.173Z,99405.46
2022-11-15T03:04:47.427Z,99403.54
2022-11-15T03:08:00.911Z,99401.31
2022-11-15T03:11:02.003Z,99394.61
2022-11-15T03:14:14.108Z,99391.61
2022-11-15T03:17:02.044Z,99383.76
2022-11-15T03:19:49.162Z,99383.30
2022-11-15T03:22:37.259Z,99382.52
2022-11-15T03:25:24.446Z,99375.06
2022-11-15T03:28:11.634Z,99374.70
2022-11-15T03:30:57.428Z,99370.32
2022-11-15T03:33:43.119Z,99365.39
2022-11-15T03:36:29.001Z,99363.45
2022-11-15T03:39:20.287Z,99366.29
2022-11-15T03:42:12.865Z,99360.97
2022-11-15T03:45:37.462Z,99358.61
2022-11-15T03:48:26.014Z,99347.98
2022-11-15T03:51:11.793Z,99347.00
2022-11-15T03:53:57.369Z,99342.69
2022-11-15T03:56:43.057Z,99337.71
2022-11-15T03:59:28.958Z,99325.33
2022-11-15T04:02:14.556Z,99324.77
2022-11-15T04:05:00.520Z,99320.42
2022-11-15T04:07:46.199Z,99318.65
2022-11-15T04:10:32.601Z,99312.92
2022-11-15T04:13:18.283Z,99308.45
2022-11-15T04:16:04.188Z,99308.51
2022-11-15T04:19:10.247Z,99305.48
2022-11-15T04:22:25.728Z,99301.44
2022-11-15T04:25:11.525Z,99295.92
2022-11-15T04:27:57.189Z,99292.44
2022-11-15T04:30:43.082Z,99289.71
2022-11-15T04:33:28.976Z,99290.37
2022-11-15T04:36:33.599Z,99287.60
2022-11-15T04:39:19.684Z,99285.50
2022-11-15T04:42:05.367Z,99286.41
2022-11-15T04:44:51.060Z,99282.86
2022-11-15T04:47:36.856Z,99281.73
2022-11-15T04:50:22.471Z,99279.21
2022-11-15T04:53:08.323Z,99276.48
2022-11-15T04:55:54.000Z,99270.65
2022-11-15T04:58:39.573Z,99269.11
2022-11-15T05:01:25.432Z,99261.41
2022-11-15T05:04:20.270Z,99262.95
2022-11-15T05:07:06.188Z,99259.04
2022-11-15T05:09:52.139Z,99262.41
2022-11-15T05:12:38.250Z,99259.27
2022-11-15T05:15:23.925Z,99256.55
2022-11-15T05:18:10.144Z,99248.85
2022-11-15T05:20:56.002Z,99246.23
2022-11-15T05:23:42.092Z,99241.92
2022-11-15T05:26:28.401Z,99239.64
2022-11-15T05:29:13.885Z,99238.58
2022-11-15T05:31:59.532Z,99239.17
2022-11-15T05:34:45.478Z,99234.33
2022-11-15T05:37:31.446Z,99231.38
2022-11-15T05:40:17.429Z,99226.50
2022-11-15T05:43:03.419Z,99230.67
2022-11-15T05:45:49.311Z,99226.41
2022-11-15T05:48:35.813Z,99225.98
2022-11-15T05:51:21.708Z,99220.52
2022-11-15T05:54:08.005Z,99221.34
2022-11-15T05:56:53.682Z,99219.33
2022-11-15T05:59:39.370Z,99220.53
2022-11-15T06:02:25.304Z,99219.41
2022-11-15T06:05:11.070Z,99218.90
2022-11-15T06:08:00.311Z,99214.45
2022-11-15T06:10:46.511Z,99213.86
2022-11-15T06:13:32.442Z,99210.59
2022-11-15T06:16:18.402Z,99212.17
2022-11-15T06:19:04.097Z,99210.82
2022-11-15T06:21:49.763Z,99203.71
2022-11-15T06:24:35.356Z,99198.62
2022-11-15T06:27:21.226Z,99194.65
2022-11-15T06:30:07.833Z,99196.80
2022-11-15T06:33:00.814Z,99192.45
2022-11-15T06:35:46.677Z,99190.95
2022-11-15T06:38:32.362Z,99189.88
2022-11-15T06:41:18.976Z,99187.02
2022-11-15T06:44:04.375Z,99185.48
2022-11-15T06:46:50.103Z,99185.80
2022-11-15T06:49:35.946Z,99179.27
2022-11-15T06:52:22.806Z,99174.86
2022-11-15T06:55:09.257Z,99170.23
2022-11-15T06:57:55.834Z,99166.61
2022-11-15T07:00:41.735Z,99164.48
2022-11-15T07:03:28.168Z,99161.91
2022-11-15T07:06:13.914Z,99158.06
2022-11-15T07:08:59.623Z,99156.97
2022-11-15T07:11:45.383Z,99148.17
2022-11-15T07:14:31.196Z,99143.55
2022-11-15T07:17:16.903Z,99142.23
2022-11-15T07:20:02.695Z,99139.52
2022-11-15T07:22:48.472Z,99136.02
2022-11-15T07:25:34.300Z,99131.27
2022-11-15T07:28:20.622Z,99125.86
2022-11-15T07:31:08.826Z,99122.55
2022-11-15T07:33:54.483Z,99119.34
2022-11-15T07:36:40.529Z,99119.34
2022-11-15T07:39:26.110Z,99114.30
2022-11-15T07:42:30.497Z,99115.60
2022-11-15T07:45:16.118Z,99113.52
2022-11-15T07:48:02.005Z,99111.04
2022-11-15T07:50:47.489Z,99106.27
2022-11-15T07:53:33.913Z,99105.63
2022-11-15T07:56:21.854Z,99102.81
2022-11-15T07:59:07.348Z,99098.18
2022-11-15T08:01:53.412Z,99099.88
2022-11-15T08:04:39.392Z,99096.77
2022-11-15T08:07:25.201Z,99087.49
2022-11-15T08:10:12.533Z,99084.71
2022-11-15T08:13:02.669Z,99079.74
2022-11-15T08:15:50.139Z,99076.99
2022-11-15T08:18:39.176Z,99077.95
2022-11-15T08:21:24.869Z,99072.09
2022-11-15T08:24:11.394Z,99069.19
2022-11-15T08:26:57.075Z,99068.78
2022-11-15T08:29:44.091Z,99061.70
2022-11-15T08:32:29.641Z,99056.77
2022-11-15T08:35:15.733Z,99055.30
2022-11-15T08:38:01.363Z,99045.73
2022-11-15T08:40:47.002Z,99036.51
2022-11-15T08:43:33.397Z,99039.28
2022-11-15T08:46:20.220Z,99038.85
2022-11-15T08:49:05.590Z,99032.95
2022-11-15T08:51:51.100Z,99031.63
2022-11-15T08:54:36.779Z,99024.83
2022-11-15T08:57:22.399Z,99021.59
2022-11-15T09:00:09.246Z,99017.75
2022-11-15T09:02:54.933Z,99015.78
2022-11-15T09:05:40.447Z,99008.84
2022-11-15T09:08:46.665Z,99010.48
2022-11-15T09:11:32.878Z,99005.98
2022-11-15T09:14:18.568Z,99000.57
2022-11-15T09:17:04.676Z,98998.70
2022-11-15T09:19:50.647Z,98998.70
2022-11-15T09:22:37.657Z,98996.47
2022-11-15T09:25:23.348Z,98996.73
2022-11-15T09:28:09.564Z,98989.07
2022-11-15T09:31:02.415Z,98982.02
2022-11-15T09:33:48.177Z,98975.43
2022-11-15T09:36:33.964Z,98973.69
2022-11-15T09:39:19.547Z,98970.95
2022-11-15T09:42:12.086Z,98971.08
2022-11-15T09:45:07.921Z,98960.27
2022-11-15T09:48:09.059Z,98957.02
2022-11-15T09:50:54.610Z,98951.94
2022-11-15T09:54:23.749Z,98945.15
2022-11-15T09:56:31.747Z,98935.91
2022-11-15T09:59:17.755Z,98933.84
2022-11-15T10:01:50.839Z,98934.95
2022-11-15T10:04:18.490Z,98929.55
2022-11-15T10:06:51.466Z,98926.86
2022-11-15T10:09:23.898Z,98922.09
2022-11-15T10:11:50.925Z,98922.87
2022-11-15T10:14:23.405Z,98915.52
2022-11-15T10:16:56.566Z,98915.33
2022-11-15T10:19:34.338Z,98910.80
2022-11-15T10:22:36.728Z,98906.73
2022-11-15T10:25:09.818Z,98908.91
2022-11-15T10:27:36.871Z,98900.08
2022-11-15T10:30:05.266Z,98889.88
2022-11-15T10:32:32.445Z,98887.58
2022-11-15T10:34:59.448Z,98886.95
2022-11-15T10:37:30.721Z,98886.48
2022-11-15T10:40:05.733Z,98886.00
2022-11-15T10:42:32.675Z,98878.14
2022-11-15T10:44:59.710Z,98883.32
2022-11-15T10:47:28.148Z,98882.05
2022-11-15T10:50:00.403Z,98880.96
2022-11-15T10:52:27.510Z,98878.83
2022-11-15T10:54:56.531Z,98872.66
2022-11-15T10:57:25.211Z,98865.52
2022-11-15T10:59:54.182Z,98858.22
2022-11-15T11:02:43.779Z,98850.27
2022-11-15T11:05:29.291Z,98855.67
2022-11-15T11:08:02.390Z,98853.09
2022-11-15T11:10:50.451Z,98850.08
2022-11-15T11:13:24.390Z,98844.21
2022-11-15T11:16:07.013Z,98846.83
2022-11-15T11:18:59.272Z,98842.70
2022-11-15T11:21:39.655Z,98839.95
2022-11-15T11:24:27.014Z,98843.09
2022-11-15T11:27:03.310Z,98836.16
2022-11-15T11:29:52.437Z,98834.84
2022-11-15T11:32:44.907Z,98835.42
2022-11-15T11:35:21.754Z,98834.92
2022-11-15T11:37:55.464Z,98828.92
2022-11-15T11:40:44.648Z,98826.40
2022-11-15T11:43:14.664Z,98817.92
2022-11-15T11:45:59.935Z,98816.29
2022-11-15T11:48:46.888Z,98817.08
2022-11-15T11:51:16.851Z,98812.69
2022-11-15T11:53:52.290Z,98808.34
2022-11-15T11:56:32.700Z,98803.64
2022-11-15T11:59:08.470Z,98803.64
2022-11-15T12:01:43.057Z,98799.20
2022-11-15T12:04:21.860Z,98793.83
2022-11-15T12:06:52.661Z,98795.92
2022-11-15T12:09:39.725Z,98791.89
2022-11-15T12:12:42.585Z,98792.33
2022-11-15T12:15:27.303Z,98790.98
2022-11-15T12:17:56.429Z,98792.09
2022-11-15T12:20:32.126Z,98788.23
2022-11-15T12:23:20.346Z,98780.67
2022-11-15T12:25:51.855Z,98776.46
2022-11-15T12:29:06.003Z,98772.55
2022-11-15T12:31:44.809Z,98769.02
2022-11-15T12:34:14.807Z,98767.05
2022-11-15T12:36:43.953Z,98762.77
2022-11-15T12:39:11.945Z,98758.98
2022-11-15T12:41:39.707Z,98759.54
2022-11-15T12:44:31.522Z,98762.77
2022-11-15T12:46:58.388Z,98761.37
2022-11-15T12:49:43.761Z,98753.76
2022-11-15T12:52:10.910Z,98752.36
2022-11-15T12:54:37.884Z,98746.95
2022-11-15T12:57:05.014Z,98743.48
2022-11-15T12:59:51.109Z,98741.51
2022-11-15T13:02:36.985Z,98740.24
2022-11-15T13:05:16.667Z,98732.78
2022-11-15T13:07:43.677Z,98739.61
2022-11-15T13:10:13.930Z,98737.47
2022-11-15T13:12:44.021Z,98738.05
2022-11-15T13:15:14.187Z,98733.79
2022-11-15T13:17:42.740Z,98728.76
2022-11-15T13:20:12.553Z,98726.93
2022-11-15T13:23:03.575Z,98721.83
2022-11-15T13:25:36.755Z,98720.19
2022-11-15T13:28:42.488Z,98721.41
2022-11-15T13:31:15.776Z,98717.41
2022-11-15T13:33:42.737Z,98716.13
2022-11-15T13:36:35.280Z,98712.33
2022-11-15T13:39:27.506Z,98711.67
2022-11-15T13:41:54.427Z,98706.95
2022-11-15T13:44:23.457Z,98703.52
2022-11-15T13:46:50.588Z,98698.12
2022-11-15T13:49:17.570Z,98698.38
2022-11-15T13:51:47.893Z,98696.14
